createdAt,value
2019-05-22T00:01:49.538Z,99920.55
2019-05-22T00:04:35.964Z,99921.25
2019-05-22T00:20:37.294Z,99920.55
2019-05-22T00:26:13.958Z,99923.70
2019-05-22T00:34:07.692Z,99928.69
2019-05-22T00:36:54.317Z,99924.80
2019-05-22T00:39:40.771Z,99920.45
2019-05-22T00:47:51.160Z,99923.98
2019-05-22T00:53:30.958Z,99926.30
2019-05-22T00:56:16.723Z,99930.30
2019-05-22T00:58:36.151Z,99921.78
2019-05-22T01:01:22.664Z,99938.03
2019-05-22T01:12:09.691Z,99938.67
2019-05-22T01:14:46.066Z,99940.35
2019-05-22T01:17:32.495Z,99938.31
2019-05-22T01:23:06.916Z,99940.25
2019-05-22T01:25:53.550Z,99939.27
2019-05-22T01:31:14.900Z,99942.92
2019-05-22T01:34:01.624Z,99945.94
2019-05-22T01:39:26.501Z,99942.09
2019-05-22T01:42:13.221Z,99945.23
2019-05-22T01:45:05.966Z,99939.90
2019-05-22T01:47:47.701Z,99939.90
2019-05-22T01:50:34.105Z,99949.95
2019-05-22T02:00:45.100Z,99953.95
2019-05-22T02:11:31.631Z,99945.59
2019-05-22T02:14:18.057Z,99953.76
2019-05-22T02:17:04.878Z,99959.70
2019-05-22T02:22:20.655Z,99968.11
2019-05-22T02:29:56.893Z,99969.95
2019-05-22T02:32:43.337Z,99963.75
2019-05-22T02:43:25.870Z,99974.94
2019-05-22T02:48:42.416Z,99978.44
2019-05-22T02:59:11.057Z,99971.09
2019-05-22T03:01:38.756Z,99976.08
2019-05-22T03:04:25.176Z,99974.75
2019-05-22T03:07:11.543Z,99976.68
2019-05-22T03:12:17.432Z,99978.17
2019-05-22T03:15:04.168Z,99990.77
2019-05-22T03:20:25.535Z,99986.06
2019-05-22T03:25:41.606Z,99990.94
2019-05-22T03:33:31.637Z,100004.71
2019-05-22T03:36:18.055Z,100006.91
2019-05-22T03:39:04.452Z,100013.37
2019-05-22T03:41:32.236Z,100013.37
2019-05-22T03:44:18.694Z,100019.81
2019-05-22T03:46:46.539Z,100019.81
2019-05-22T03:49:28.871Z,100020.05
2019-05-22T03:51:44.573Z,100025.03
2019-05-22T03:54:30.931Z,100025.03
2019-05-22T03:59:32.777Z,100033.42
2019-05-22T04:02:00.975Z,100036.09
2019-05-22T04:12:29.016Z,100046.77
2019-05-22T04:14:56.756Z,100046.77
2019-05-22T04:20:17.756Z,100046.67
2019-05-22T04:23:16.080Z,100049.34
2019-05-22T04:25:53.475Z,100049.34
2019-05-22T04:28:23.994Z,100051.62
2019-05-22T04:38:56.549Z,100066.09
2019-05-22T04:44:31.441Z,100065.84
2019-05-22T04:50:07.924Z,100074.09
2019-05-22T04:52:35.191Z,100074.09
2019-05-22T04:55:21.620Z,100065.96
2019-05-22T05:00:56.175Z,100068.17
2019-05-22T05:06:30.722Z,100070.48
2019-05-22T05:09:17.147Z,100080.40
2019-05-22T05:12:03.760Z,100080.55
2019-05-22T05:17:24.479Z,100087.59
2019-05-22T05:19:52.156Z,100089.13
2019-05-22T05:22:20.057Z,100089.13
2019-05-22T05:24:47.671Z,100090.25
2019-05-22T05:27:16.604Z,100097.03
2019-05-22T05:29:47.424Z,100097.03
2019-05-22T05:32:15.483Z,100096.67
2019-05-22T05:34:45.412Z,100105.39
2019-05-22T05:37:13.672Z,100105.39
2019-05-22T05:39:42.242Z,100114.72
2019-05-22T05:42:09.828Z,100113.75
2019-05-22T05:44:37.860Z,100119.92
2019-05-22T05:47:05.604Z,100119.92
2019-05-22T05:49:33.183Z,100115.67
2019-05-22T05:52:01.267Z,100121.75
2019-05-22T05:54:30.413Z,100121.75
2019-05-22T05:56:58.065Z,100129.75
2019-05-22T05:59:28.695Z,100129.36
2019-05-22T06:01:56.875Z,100126.33
2019-05-22T06:04:33.911Z,100131.31
2019-05-22T06:07:00.520Z,100135.09
2019-05-22T06:09:26.264Z,100135.09
2019-05-22T06:11:56.094Z,100133.61
2019-05-22T06:14:25.884Z,100136.63
2019-05-22T06:16:56.184Z,100137.13
2019-05-22T06:19:24.118Z,100136.77
2019-05-22T06:21:52.794Z,100142.47
2019-05-22T06:24:22.553Z,100142.47
2019-05-22T06:26:53.651Z,100144.27
2019-05-22T06:29:28.055Z,100149.00
2019-05-22T06:31:55.757Z,100149.00
2019-05-22T06:34:26.076Z,100146.33
2019-05-22T06:36:54.006Z,100156.41
2019-05-22T06:39:21.629Z,100152.77
2019-05-22T06:41:53.696Z,100158.83
2019-05-22T06:44:22.266Z,100166.20
2019-05-22T06:46:50.248Z,100170.72
2019-05-22T06:49:17.943Z,100166.09
2019-05-22T06:51:45.944Z,100168.15
2019-05-22T06:54:13.539Z,100168.15
2019-05-22T06:56:41.191Z,100174.11
2019-05-22T06:59:09.392Z,100170.70
2019-05-22T07:01:37.016Z,100170.70
2019-05-22T07:04:05.364Z,100170.48
2019-05-22T07:06:35.041Z,100170.48
2019-05-22T07:09:06.022Z,100175.69
2019-05-22T07:11:33.626Z,100180.05
2019-05-22T07:14:01.661Z,100180.05
2019-05-22T07:16:37.250Z,100177.15
2019-05-22T07:19:07.731Z,100182.83
2019-05-22T07:21:43.475Z,100176.40
2019-05-22T07:24:11.253Z,100176.40
2019-05-22T07:26:39.220Z,100184.65
2019-05-22T07:29:08.871Z,100180.74
2019-05-22T07:31:37.156Z,100187.43
2019-05-22T07:34:06.048Z,100183.77
2019-05-22T07:36:34.190Z,100180.36
2019-05-22T07:39:01.817Z,100189.54
2019-05-22T07:41:29.478Z,100185.27
2019-05-22T07:43:57.500Z,100185.27
2019-05-22T07:46:25.195Z,100186.61
2019-05-22T07:48:52.844Z,100189.02
2019-05-22T07:51:21.026Z,100197.63
2019-05-22T07:53:48.756Z,100202.84
2019-05-22T07:56:17.088Z,100202.84
2019-05-22T07:58:45.203Z,100206.11
2019-05-22T08:01:13.729Z,100208.41
2019-05-22T08:03:43.182Z,100205.81
2019-05-22T08:06:14.741Z,100204.61
2019-05-22T08:08:45.295Z,100207.60
2019-05-22T08:11:13.653Z,100202.26
2019-05-22T08:13:43.116Z,100202.26
2019-05-22T08:16:14.609Z,100215.14
2019-05-22T08:18:43.056Z,100214.28
2019-05-22T08:21:11.304Z,100213.21
2019-05-22T08:23:39.089Z,100211.40
2019-05-22T08:26:09.355Z,100211.40
2019-05-22T08:28:37.380Z,100219.30
2019-05-22T08:31:05.722Z,100218.31
2019-05-22T08:33:33.272Z,100219.38
2019-05-22T08:36:01.468Z,100216.09
2019-05-22T08:38:29.857Z,100216.09
2019-05-22T08:40:57.493Z,100223.01
2019-05-22T08:43:28.264Z,100223.01
2019-05-22T08:45:56.382Z,100222.73
2019-05-22T08:48:24.091Z,100222.73
2019-05-22T08:50:54.759Z,100216.81
2019-05-22T08:53:22.405Z,100218.15
2019-05-22T08:55:54.266Z,100218.15
2019-05-22T08:58:22.491Z,100217.61
2019-05-22T09:00:51.222Z,100213.63
2019-05-22T09:03:20.076Z,100222.43
2019-05-22T09:05:47.966Z,100227.14
2019-05-22T09:08:17.902Z,100224.89
2019-05-22T09:10:46.037Z,100224.89
2019-05-22T09:13:14.063Z,100220.95
2019-05-22T09:15:42.707Z,100220.95
2019-05-22T09:18:10.356Z,100225.56
2019-05-22T09:20:48.914Z,100227.36
2019-05-22T09:23:12.515Z,100226.72
2019-05-22T09:25:43.565Z,100226.72
2019-05-22T09:28:11.562Z,100225.08
2019-05-22T09:30:43.092Z,100229.16
2019-05-22T09:33:19.100Z,100229.97
2019-05-22T09:35:44.339Z,100240.20
2019-05-22T09:38:13.080Z,100240.20
2019-05-22T09:40:42.407Z,100241.74
2019-05-22T09:43:10.697Z,100236.91
2019-05-22T09:45:38.608Z,100236.91
2019-05-22T09:48:15.322Z,100244.20
2019-05-22T09:50:43.371Z,100240.03
2019-05-22T09:53:11.557Z,100234.67
2019-05-22T09:55:40.998Z,100246.74
2019-05-22T09:58:09.242Z,100242.98
2019-05-22T10:00:37.336Z,100242.98
2019-05-22T10:03:09.407Z,100242.33
2019-05-22T10:05:37.364Z,100242.33
2019-05-22T10:08:05.880Z,100232.46
2019-05-22T10:10:33.938Z,100236.55
2019-05-22T10:13:04.914Z,100243.74
2019-05-22T10:15:33.323Z,100246.80
2019-05-22T10:18:01.525Z,100246.80
2019-05-22T10:20:29.227Z,100254.28
2019-05-22T10:23:12.603Z,100254.28
2019-05-22T10:25:27.229Z,100246.87
2019-05-22T10:27:59.226Z,100248.41
2019-05-22T10:30:26.246Z,100255.95
2019-05-22T10:32:56.371Z,100255.95
2019-05-22T10:35:25.514Z,100259.19
2019-05-22T10:37:56.635Z,100257.22
2019-05-22T10:40:24.696Z,100253.56
2019-05-22T10:42:55.071Z,100253.56
2019-05-22T10:45:22.707Z,100257.67
2019-05-22T10:47:50.811Z,100247.91
2019-05-22T10:50:18.491Z,100247.91
2019-05-22T10:52:46.623Z,100248.52
2019-05-22T10:55:14.692Z,100246.31
2019-05-22T10:57:43.668Z,100242.86
2019-05-22T11:00:13.231Z,100238.27
2019-05-22T11:02:44.370Z,100238.27
2019-05-22T11:05:15.265Z,100237.52
2019-05-22T11:07:44.037Z,100223.86
2019-05-22T11:10:14.665Z,100229.66
2019-05-22T11:12:44.476Z,100229.66
2019-05-22T11:15:14.270Z,100230.52
2019-05-22T11:17:42.228Z,100230.09
2019-05-22T11:20:09.823Z,100233.52
2019-05-22T11:22:38.690Z,100238.20
2019-05-22T11:25:07.943Z,100240.28
2019-05-22T11:27:35.661Z,100236.48
2019-05-22T11:30:03.738Z,100236.48
2019-05-22T11:32:31.474Z,100233.09
2019-05-22T11:34:59.440Z,100233.09
2019-05-22T11:37:35.000Z,100233.36
2019-05-22T11:40:07.835Z,100231.28
2019-05-22T11:42:35.819Z,100227.23
2019-05-22T11:45:03.887Z,100224.72
2019-05-22T11:47:31.932Z,100222.70
2019-05-22T11:50:05.827Z,100220.08
2019-05-22T11:52:34.044Z,100224.21
2019-05-22T11:55:01.732Z,100218.27
2019-05-22T11:57:30.496Z,100217.23
2019-05-22T11:59:58.139Z,100213.48
2019-05-22T12:02:28.082Z,100223.97
2019-05-22T12:04:59.131Z,100225.27
2019-05-22T12:07:26.983Z,100215.62
2019-05-22T12:09:56.436Z,100215.62
2019-05-22T12:12:24.616Z,100222.73
2019-05-22T12:14:52.319Z,100222.73
2019-05-22T12:17:36.717Z,100224.27
2019-05-22T12:19:50.156Z,100221.25
2019-05-22T12:22:20.111Z,100223.00
2019-05-22T12:24:50.760Z,100226.70
2019-05-22T12:27:19.033Z,100214.56
2019-05-22T12:29:46.848Z,100215.06
2019-05-22T12:32:15.117Z,100204.49
2019-05-22T12:34:46.167Z,100204.49
2019-05-22T12:37:16.597Z,100213.00
2019-05-22T12:39:44.687Z,100213.00
2019-05-22T12:42:13.640Z,100210.30
2019-05-22T12:44:42.359Z,100207.72
2019-05-22T12:47:10.125Z,100211.71
2019-05-22T12:49:38.346Z,100216.30
2019-05-22T12:52:07.837Z,100211.30
2019-05-22T12:54:46.148Z,100200.21
2019-05-22T12:57:06.412Z,100201.56
2019-05-22T12:59:36.976Z,100204.96
2019-05-22T13:02:11.021Z,100199.73
2019-05-22T13:04:43.172Z,100192.06
2019-05-22T13:07:10.303Z,100192.06
2019-05-22T13:09:38.428Z,100198.52
2019-05-22T13:12:06.889Z,100203.47
2019-05-22T13:14:34.623Z,100196.64
2019-05-22T13:17:03.856Z,100196.30
2019-05-22T13:19:34.873Z,100197.98
2019-05-22T13:22:03.314Z,100198.01
2019-05-22T13:24:30.928Z,100200.59
2019-05-22T13:27:01.609Z,100191.61
2019-05-22T13:29:30.740Z,100193.28
2019-05-22T13:31:58.624Z,100198.06
2019-05-22T13:34:27.018Z,100189.69
2019-05-22T13:36:56.813Z,100196.59
2019-05-22T13:39:24.872Z,100184.04
2019-05-22T13:41:52.823Z,100169.73
2019-05-22T13:44:20.491Z,100169.73
2019-05-22T13:46:51.165Z,100178.34
2019-05-22T13:49:24.898Z,100178.34
2019-05-22T13:51:52.757Z,100173.98
2019-05-22T13:54:26.686Z,100184.57
2019-05-22T13:56:55.350Z,100184.57
2019-05-22T13:59:41.789Z,100181.52
2019-05-22T14:02:28.172Z,100181.52
2019-05-22T14:05:07.802Z,100178.87
2019-05-22T14:08:14.241Z,100178.87
2019-05-22T14:10:13.392Z,100172.55
2019-05-22T14:12:59.821Z,100171.78
2019-05-22T14:18:32.686Z,100186.53
2019-05-22T14:23:56.823Z,100182.80
2019-05-22T14:26:24.532Z,100182.67
2019-05-22T14:29:11.006Z,100181.61
2019-05-22T14:31:38.603Z,100173.02
2019-05-22T14:34:25.022Z,100178.22
2019-05-22T14:36:52.676Z,100178.22
2019-05-22T14:39:39.137Z,100178.06
2019-05-22T14:45:16.686Z,100179.98
2019-05-22T14:47:44.370Z,100187.61
2019-05-22T14:50:43.151Z,100173.66
2019-05-22T14:53:00.272Z,100176.37
2019-05-22T14:55:46.660Z,100172.83
2019-05-22T15:01:06.525Z,100177.20
2019-05-22T15:03:52.976Z,100180.73
2019-05-22T15:06:39.752Z,100179.19
2019-05-22T15:09:29.138Z,100165.38
2019-05-22T15:12:15.624Z,100165.38
2019-05-22T15:14:43.302Z,100158.16
2019-05-22T15:17:32.938Z,100165.25
2019-05-22T15:23:04.337Z,100154.36
2019-05-22T15:28:41.895Z,100159.13
2019-05-22T15:39:54.350Z,100144.11
2019-05-22T15:45:28.779Z,100142.47
2019-05-22T15:51:04.204Z,100151.86
2019-05-22T15:56:37.167Z,100141.77
2019-05-22T16:02:21.737Z,100137.20
2019-05-22T16:04:47.898Z,100131.92
2019-05-22T16:15:27.162Z,100128.23
2019-05-22T16:18:10.943Z,100132.48
2019-05-22T16:20:36.891Z,100136.91
2019-05-22T16:23:08.817Z,100131.69
2019-05-22T16:25:36.484Z,100136.77
2019-05-22T16:28:04.330Z,100138.44
2019-05-22T16:30:33.487Z,100139.83
2019-05-22T16:33:01.100Z,100139.83
2019-05-22T16:35:31.780Z,100148.75
2019-05-22T16:38:01.827Z,100152.16
2019-05-22T16:40:30.073Z,100152.16
2019-05-22T16:42:57.743Z,100149.72
2019-05-22T16:45:28.299Z,100146.61
2019-05-22T16:47:56.378Z,100144.95
2019-05-22T16:50:25.119Z,100143.33
2019-05-22T16:53:07.068Z,100140.17
2019-05-22T16:55:35.380Z,100135.14
2019-05-22T16:58:03.447Z,100145.03
2019-05-22T17:00:50.247Z,100142.97
2019-05-22T17:03:36.642Z,100142.97
2019-05-22T17:08:57.245Z,100145.64
2019-05-22T17:11:43.711Z,100147.20
2019-05-22T17:14:42.558Z,100147.20
2019-05-22T17:16:59.496Z,100146.09
2019-05-22T17:19:45.861Z,100145.80
2019-05-22T17:22:13.736Z,100152.26
2019-05-22T17:25:01.703Z,100144.02
2019-05-22T17:30:22.351Z,100149.27
2019-05-22T17:36:09.309Z,100139.53
2019-05-22T17:41:33.083Z,100143.91
2019-05-22T17:46:54.112Z,100144.44
2019-05-22T17:49:21.819Z,100142.92
2019-05-22T17:51:49.922Z,100143.61
2019-05-22T17:54:19.185Z,100143.61
2019-05-22T17:56:49.451Z,100146.11
2019-05-22T17:59:21.313Z,100143.25
2019-05-22T18:01:49.990Z,100150.83
2019-05-22T18:04:17.658Z,100154.70
2019-05-22T18:06:50.078Z,100150.66
2019-05-22T18:09:19.536Z,100146.89
2019-05-22T18:11:53.406Z,100153.98
2019-05-22T18:14:24.279Z,100163.04
2019-05-22T18:16:53.130Z,100163.04
2019-05-22T18:19:21.681Z,100157.62
2019-05-22T18:21:49.914Z,100160.30
2019-05-22T18:24:17.527Z,100164.31
2019-05-22T18:26:49.082Z,100151.09
2019-05-22T18:29:16.956Z,100151.09
2019-05-22T18:31:44.565Z,100156.11
2019-05-22T18:34:15.617Z,100149.00
2019-05-22T18:36:43.246Z,100150.64
2019-05-22T18:42:03.701Z,100160.39
2019-05-22T18:47:28.317Z,100162.20
2019-05-22T18:49:58.489Z,100166.82
2019-05-22T18:52:57.132Z,100162.05
2019-05-22T18:58:43.429Z,100164.22
2019-05-22T19:03:43.460Z,100168.27
2019-05-22T19:06:11.588Z,100168.27
2019-05-22T19:09:00.677Z,100160.92
2019-05-22T19:11:30.351Z,100160.92
2019-05-22T19:17:03.131Z,100166.69
2019-05-22T19:33:05.237Z,100181.14
2019-05-22T19:35:33.087Z,100188.34
2019-05-22T19:38:22.653Z,100192.06
2019-05-22T19:43:43.533Z,100197.56
2019-05-22T19:46:11.175Z,100198.41
2019-05-22T19:48:57.554Z,100198.41
2019-05-22T19:54:54.660Z,100208.72
2019-05-22T19:57:01.381Z,100204.90
2019-05-22T20:02:24.795Z,100211.08
2019-05-22T20:05:11.160Z,100211.08
2019-05-22T20:08:00.234Z,100221.05
2019-05-22T20:10:32.114Z,100226.72
2019-05-22T20:13:00.064Z,100226.09
2019-05-22T20:15:30.681Z,100226.09
2019-05-22T20:18:00.474Z,100223.41
2019-05-22T20:20:30.075Z,100221.95
2019-05-22T20:22:58.539Z,100226.77
2019-05-22T20:25:33.870Z,100230.82
2019-05-22T20:28:01.876Z,100233.54
2019-05-22T20:30:34.953Z,100233.54
2019-05-22T20:33:02.703Z,100227.02
2019-05-22T20:35:34.022Z,100230.37
2019-05-22T20:41:08.422Z,100231.33
2019-05-22T20:43:54.822Z,100237.76
2019-05-22T20:46:41.293Z,100237.76
2019-05-22T20:52:15.712Z,100233.09
2019-05-22T21:05:38.773Z,100245.71
2019-05-22T21:11:13.709Z,100245.84
2019-05-22T21:13:41.346Z,100248.29
2019-05-22T21:19:01.904Z,100248.20
2019-05-22T21:26:56.778Z,100255.72
2019-05-22T21:29:39.052Z,100251.47
2019-05-22T21:35:01.503Z,100257.64
2019-05-22T21:38:00.109Z,100258.52
2019-05-22T21:40:35.950Z,100258.52
2019-05-22T21:43:22.379Z,100258.88
2019-05-22T21:46:08.748Z,100265.66
2019-05-22T21:48:55.211Z,100259.25
2019-05-22T21:51:41.676Z,100259.25
2019-05-22T21:57:18.383Z,100278.14
2019-05-22T22:02:39.361Z,100277.31
2019-05-22T22:08:13.810Z,100263.11
2019-05-22T22:13:46.753Z,100279.25
2019-05-22T22:16:14.475Z,100274.75
2019-05-22T22:19:00.944Z,100282.14
2019-05-22T22:24:25.191Z,100282.50
2019-05-22T22:27:11.662Z,100290.39
2019-05-22T22:30:10.330Z,100290.39
2019-05-22T22:35:20.464Z,100290.22
2019-05-22T22:40:55.288Z,100297.47
2019-05-22T22:43:22.991Z,100297.47
2019-05-22T22:46:09.977Z,100295.76
2019-05-22T22:56:59.227Z,100297.38
2019-05-22T23:07:49.990Z,100296.59
2019-05-22T23:13:10.861Z,100303.78
2019-05-22T23:26:16.664Z,100299.75
2019-05-22T23:34:25.451Z,100291.33
2019-05-22T23:39:46.424Z,100285.11
2019-05-22T23:44:48.249Z,100282.92
2019-05-22T23:47:34.913Z,100290.75
